createdAt,value
2023-03-01T00:01:16.684Z,60.92
2023-03-01T00:03:43.781Z,62.27
2023-03-01T00:06:11.006Z,63.90
2023-03-01T00:08:37.948Z,60.99
2023-03-01T00:11:05.607Z,56.09
2023-03-01T00:13:33.112Z,56.18
2023-03-01T00:15:59.751Z,58.42
2023-03-01T00:18:26.301Z,60.36
2023-03-01T00:20:54.441Z,61.86
2023-03-01T00:23:22.289Z,63.93
2023-03-01T00:25:49.519Z,61.69
2023-03-01T00:28:16.465Z,56.67
2023-03-01T00:30:43.488Z,56.44
2023-03-01T00:33:10.212Z,58.29
2023-03-01T00:35:37.018Z,59.93
2023-03-01T00:38:04.359Z,61.44
2023-03-01T00:40:34.879Z,62.31
2023-03-01T00:43:02.313Z,63.64
2023-03-01T00:45:31.332Z,60.87
2023-03-01T00:47:57.871Z,56.12
2023-03-01T00:50:24.658Z,56.31
2023-03-01T00:52:55.880Z,58.40
2023-03-01T00:55:23.552Z,60.38
2023-03-01T00:57:50.145Z,61.89
2023-03-01T01:00:18.025Z,63.92
2023-03-01T01:02:45.680Z,61.96
2023-03-01T01:05:13.064Z,57.24
2023-03-01T01:07:39.724Z,56.81
2023-03-01T01:10:09.087Z,58.98
2023-03-01T01:12:35.748Z,60.88
2023-03-01T01:15:02.460Z,62.09
2023-03-01T01:17:29.060Z,63.80
2023-03-01T01:19:55.769Z,61.47
2023-03-01T01:22:22.380Z,56.57
2023-03-01T01:24:48.936Z,56.42
2023-03-01T01:27:15.588Z,58.58
2023-03-01T01:29:42.478Z,60.45
2023-03-01T01:32:09.088Z,61.81
2023-03-01T01:34:35.713Z,63.68
2023-03-01T01:37:03.176Z,61.16
2023-03-01T01:39:29.806Z,55.97
2023-03-01T01:41:56.533Z,56.00
2023-03-01T01:44:27.464Z,58.03
2023-03-01T01:46:55.106Z,59.79
2023-03-01T01:49:25.818Z,61.48
2023-03-01T01:52:08.293Z,63.09
2023-03-01T01:54:51.045Z,61.82
2023-03-01T01:57:23.056Z,56.59
2023-03-01T01:59:54.825Z,56.47
2023-03-01T02:02:21.725Z,58.49
2023-03-01T02:04:50.567Z,60.65
2023-03-01T02:07:22.346Z,62.36
2023-03-01T02:09:51.340Z,63.87
2023-03-01T02:12:22.613Z,60.29
2023-03-01T02:14:49.331Z,55.84
2023-03-01T02:17:18.002Z,56.81
2023-03-01T02:20:10.751Z,59.05
2023-03-01T02:22:38.837Z,60.78
2023-03-01T02:25:18.654Z,62.31
2023-03-01T02:28:06.211Z,63.24
2023-03-01T02:30:33.995Z,58.27
2023-03-01T02:33:03.752Z,55.42
2023-03-01T02:43:17.444Z,62.15
2023-03-01T02:45:53.869Z,63.75
2023-03-01T02:48:21.921Z,60.59
2023-03-01T02:51:12.569Z,55.72
2023-03-01T02:53:54.725Z,56.64
2023-03-01T02:56:22.880Z,58.96
2023-03-01T02:58:52.753Z,60.87
2023-03-01T03:01:21.993Z,62.54
2023-03-01T03:03:50.027Z,63.96
2023-03-01T03:06:18.310Z,60.32
2023-03-01T03:08:46.576Z,55.61
2023-03-01T03:11:14.664Z,56.31
2023-03-01T03:13:49.266Z,58.46
2023-03-01T03:16:17.482Z,60.51
2023-03-01T03:18:45.436Z,61.96
2023-03-01T03:21:14.543Z,63.99
2023-03-01T03:23:42.724Z,61.41
2023-03-01T03:26:16.234Z,56.61
2023-03-01T03:28:44.382Z,56.82
2023-03-01T03:31:12.456Z,59.05
2023-03-01T03:33:40.443Z,60.89
2023-03-01T03:36:14.003Z,62.23
2023-03-01T03:38:41.904Z,63.82
2023-03-01T03:41:09.808Z,60.13
2023-03-01T03:43:39.537Z,55.71
2023-03-01T03:46:08.544Z,56.70
2023-03-01T03:48:43.368Z,58.94
2023-03-01T03:51:17.234Z,60.41
2023-03-01T03:53:46.590Z,61.68
2023-03-01T03:56:14.656Z,63.66
2023-03-01T03:58:44.852Z,61.47
2023-03-01T04:01:12.937Z,56.50
2023-03-01T04:03:42.730Z,56.10
2023-03-01T04:06:10.727Z,58.04
2023-03-01T04:08:41.230Z,59.78
2023-03-01T04:11:28.671Z,61.28
2023-03-01T04:14:00.004Z,62.85
2023-03-01T04:16:28.581Z,62.96
2023-03-01T04:18:57.653Z,58.19
2023-03-01T04:21:25.844Z,55.70
2023-03-01T04:23:53.936Z,57.43
2023-03-01T04:26:22.167Z,59.65
2023-03-01T04:28:51.544Z,61.23
2023-03-01T04:31:22.424Z,63.26
2023-03-01T04:33:53.834Z,62.13
2023-03-01T04:36:25.863Z,57.01
2023-03-01T04:38:54.768Z,56.62
2023-03-01T04:41:25.761Z,58.80
2023-03-01T04:43:53.832Z,60.83
2023-03-01T04:46:23.014Z,62.36
2023-03-01T04:48:51.309Z,63.88
2023-03-01T04:51:19.552Z,60.66
2023-03-01T04:53:47.852Z,55.88
2023-03-01T04:56:16.439Z,56.14
2023-03-01T04:58:45.014Z,58.28
2023-03-01T05:01:19.891Z,60.39
2023-03-01T05:03:52.921Z,61.96
2023-03-01T05:06:22.082Z,64.01
2023-03-01T05:08:50.169Z,61.62
2023-03-01T05:11:18.142Z,56.50
2023-03-01T05:13:46.094Z,56.24
2023-03-01T05:16:14.287Z,58.31
2023-03-01T05:18:42.608Z,60.07
2023-03-01T05:21:14.141Z,61.59
2023-03-01T05:23:42.353Z,63.47
2023-03-01T05:26:25.760Z,61.47
2023-03-01T05:29:00.236Z,56.00
2023-03-01T05:31:28.833Z,56.43
2023-03-01T05:33:56.836Z,58.63
2023-03-01T05:36:24.895Z,60.48
2023-03-01T05:38:52.767Z,62.03
2023-03-01T05:41:20.766Z,63.98
2023-03-01T05:43:48.913Z,61.62
2023-03-01T05:46:16.864Z,56.61
2023-03-01T05:48:44.873Z,56.12
2023-03-01T05:51:13.225Z,58.14
2023-03-01T05:53:41.161Z,59.84
2023-03-01T05:56:09.218Z,61.06
2023-03-01T05:58:39.694Z,62.15
2023-03-01T06:01:13.825Z,64.10
2023-03-01T06:03:42.352Z,61.43
2023-03-01T06:06:10.333Z,56.45
2023-03-01T06:08:38.274Z,56.47
2023-03-01T06:11:06.469Z,58.73
2023-03-01T06:13:34.478Z,60.59
2023-03-01T06:16:05.198Z,61.99
2023-03-01T06:18:33.407Z,63.90
2023-03-01T06:21:01.667Z,61.71
2023-03-01T06:23:29.674Z,56.59
2023-03-01T06:25:57.654Z,56.34
2023-03-01T06:28:25.812Z,58.45
2023-03-01T06:30:53.951Z,59.98
2023-03-01T06:33:24.548Z,61.17
2023-03-01T06:35:55.864Z,62.35
2023-03-01T06:38:25.461Z,63.85
2023-03-01T06:40:58.007Z,60.59
2023-03-01T06:43:25.995Z,55.94
2023-03-01T06:45:54.104Z,56.67
2023-03-01T06:48:22.183Z,58.88
2023-03-01T06:50:50.265Z,60.67
2023-03-01T06:53:18.283Z,62.32
2023-03-01T06:55:46.289Z,64.39
2023-03-01T06:58:14.281Z,61.31
2023-03-01T07:00:44.088Z,56.81
2023-03-01T07:03:12.139Z,57.13
2023-03-01T07:05:40.305Z,59.58
2023-03-01T07:08:08.597Z,61.64
2023-03-01T07:10:36.639Z,64.15
2023-03-01T07:13:04.728Z,62.49
2023-03-01T07:15:33.938Z,58.20
2023-03-01T07:18:02.075Z,56.76
2023-03-01T07:20:30.237Z,59.17
2023-03-01T07:22:59.666Z,61.57
2023-03-01T07:25:27.818Z,64.21
2023-03-01T07:27:55.862Z,62.48
2023-03-01T07:30:26.851Z,58.27
2023-03-01T07:32:59.049Z,57.17
2023-03-01T07:35:28.380Z,59.59
2023-03-01T07:37:56.457Z,61.45
2023-03-01T07:40:24.488Z,63.77
2023-03-01T07:42:57.569Z,61.48
2023-03-01T07:45:26.742Z,56.64
2023-03-01T07:47:56.784Z,57.14
2023-03-01T07:50:24.727Z,59.34
2023-03-01T07:52:52.833Z,61.08
2023-03-01T07:58:25.483Z,64.20
2023-03-01T08:00:53.484Z,60.33
2023-03-01T08:03:21.621Z,55.58
2023-03-01T08:05:49.582Z,56.26
2023-03-01T08:08:18.055Z,58.52
2023-03-01T08:10:46.752Z,60.02
2023-03-01T08:13:14.742Z,60.96
2023-03-01T08:15:42.874Z,61.59
2023-03-01T08:18:10.775Z,63.37
2023-03-01T08:20:38.708Z,61.83
2023-03-01T08:23:06.658Z,56.90
2023-03-01T08:25:35.113Z,56.25
2023-03-01T08:28:03.215Z,57.61
2023-03-01T08:30:31.387Z,58.54
2023-03-01T08:32:59.515Z,60.98
2023-03-01T08:35:27.653Z,62.30
2023-03-01T08:37:55.784Z,63.20
2023-03-01T08:40:23.853Z,59.02
2023-03-01T08:42:52.051Z,55.44
2023-03-01T08:45:20.325Z,57.15
2023-03-01T08:47:48.396Z,58.88
2023-03-01T08:50:16.859Z,59.83
2023-03-01T08:52:44.938Z,60.81
2023-03-01T08:55:12.940Z,61.62
2023-03-01T08:57:40.871Z,62.01
2023-03-01T09:00:10.435Z,61.86
2023-03-01T09:02:39.857Z,63.27
2023-03-01T09:05:08.461Z,60.72
2023-03-01T09:07:36.380Z,55.85
2023-03-01T09:10:04.956Z,55.74
2023-03-01T09:12:32.965Z,55.89
2023-03-01T09:15:00.912Z,55.30
2023-03-01T09:17:28.897Z,55.42
2023-03-01T09:19:56.896Z,55.25
2023-03-01T09:22:24.844Z,53.19
2023-03-01T09:24:52.831Z,53.52
2023-03-01T09:27:20.907Z,51.68
2023-03-01T09:29:48.882Z,47.48
2023-03-01T09:32:16.933Z,45.76
2023-03-01T09:35:05.880Z,44.41
2023-03-01T09:37:35.803Z,43.50
2023-03-01T09:40:06.363Z,42.18
2023-03-01T09:42:36.863Z,41.34
2023-03-01T09:45:07.228Z,40.96
2023-03-01T09:47:36.913Z,40.21
2023-03-01T09:50:11.955Z,39.22
2023-03-01T09:52:47.804Z,38.95
2023-03-01T09:55:23.589Z,38.11
2023-03-01T09:58:17.007Z,37.82
2023-03-01T10:00:49.271Z,36.99
2023-03-01T10:03:53.078Z,36.62
2023-03-01T10:06:34.459Z,35.66
2023-03-01T10:09:17.528Z,35.03
2023-03-01T10:11:54.488Z,34.70
2023-03-01T10:14:34.550Z,33.72
2023-03-01T10:17:18.872Z,33.49
2023-03-01T10:19:48.609Z,33.36
2023-03-01T10:22:18.428Z,31.78
2023-03-01T10:24:47.717Z,31.52
2023-03-01T10:27:25.167Z,31.49
2023-03-01T10:30:21.925Z,31.50
2023-03-01T10:32:52.684Z,30.80
2023-03-01T10:35:25.328Z,30.69
2023-03-01T10:38:11.243Z,31.15
2023-03-01T10:41:08.931Z,31.02
2023-03-01T10:43:52.857Z,30.06
2023-03-01T10:46:40.109Z,29.80
2023-03-01T10:49:26.704Z,28.90
2023-03-01T10:51:55.405Z,28.30
2023-03-01T10:54:25.026Z,28.94
2023-03-01T10:56:57.158Z,29.21
2023-03-01T10:59:37.464Z,28.59
2023-03-01T11:02:31.713Z,28.68
2023-03-01T11:06:31.346Z,29.21
2023-03-01T11:09:15.113Z,29.67
2023-03-01T11:11:43.095Z,29.42
2023-03-01T11:14:30.773Z,28.86
2023-03-01T11:17:13.420Z,28.94
2023-03-01T11:19:43.681Z,29.17
2023-03-01T11:22:23.211Z,29.18
2023-03-01T11:25:07.426Z,29.55
2023-03-01T11:27:46.759Z,29.38
2023-03-01T11:30:44.788Z,28.74
2023-03-01T11:33:41.029Z,27.97
2023-03-01T11:36:36.548Z,28.20
2023-03-01T11:39:38.765Z,28.73
2023-03-01T11:42:22.660Z,28.03
2023-03-01T11:44:56.655Z,28.15
2023-03-01T11:47:52.144Z,28.71
2023-03-01T11:50:49.451Z,28.88
2023-03-01T11:53:27.955Z,29.37
2023-03-01T11:56:15.471Z,28.49
2023-03-01T11:59:04.606Z,28.49
2023-03-01T12:01:53.869Z,28.32
2023-03-01T12:04:58.842Z,28.49
2023-03-01T12:08:13.060Z,27.66
2023-03-01T12:11:12.245Z,27.78
2023-03-01T12:14:05.388Z,28.12
2023-03-01T12:16:52.236Z,28.37
2023-03-01T12:19:55.891Z,29.11
2023-03-01T12:22:45.428Z,28.95
2023-03-01T12:25:30.716Z,29.11
2023-03-01T12:28:18.890Z,29.20
2023-03-01T12:31:06.295Z,29.62
2023-03-01T12:33:50.809Z,29.41
2023-03-01T12:36:37.365Z,29.68
2023-03-01T12:39:25.517Z,30.22
2023-03-01T12:42:15.096Z,30.26
2023-03-01T12:45:14.983Z,30.45
2023-03-01T12:47:51.910Z,30.47
2023-03-01T12:50:26.725Z,31.15
2023-03-01T12:52:58.762Z,31.44
2023-03-01T12:55:39.102Z,31.23
2023-03-01T12:58:48.669Z,31.07
2023-03-01T13:01:52.198Z,31.33
2023-03-01T13:05:19.356Z,31.52
2023-03-01T13:08:00.061Z,32.22
2023-03-01T13:10:37.730Z,32.23
2023-03-01T13:13:27.657Z,32.75
2023-03-01T13:15:57.076Z,33.44
2023-03-01T13:18:26.574Z,33.36
2023-03-01T13:21:03.790Z,33.29
2023-03-01T13:23:40.792Z,33.50
2023-03-01T13:26:15.926Z,34.57
2023-03-01T13:28:50.655Z,34.44
2023-03-01T13:31:23.825Z,34.53
2023-03-01T13:33:52.848Z,34.58
2023-03-01T13:36:30.494Z,34.86
2023-03-01T13:39:03.432Z,35.47
2023-03-01T13:41:40.690Z,35.84
2023-03-01T13:44:27.957Z,36.10
2023-03-01T13:47:08.217Z,36.42
2023-03-01T13:50:00.954Z,36.35
2023-03-01T13:52:58.813Z,36.81
2023-03-01T13:55:46.523Z,36.75
2023-03-01T13:58:29.761Z,37.18
2023-03-01T14:01:07.432Z,37.65
2023-03-01T14:03:42.852Z,37.50
2023-03-01T14:06:21.151Z,37.68
2023-03-01T14:08:54.099Z,38.26
2023-03-01T14:11:37.554Z,38.61
2023-03-01T14:14:08.525Z,38.45
2023-03-01T14:17:10.755Z,39.06
2023-03-01T14:19:38.783Z,40.77
2023-03-01T14:22:28.417Z,40.02
2023-03-01T14:25:07.017Z,40.73
2023-03-01T14:27:40.503Z,41.38
2023-03-01T14:30:25.795Z,42.00
2023-03-01T14:33:03.058Z,42.50
2023-03-01T14:35:37.047Z,42.87
2023-03-01T14:38:05.136Z,43.37
2023-03-01T14:40:37.896Z,43.96
2023-03-01T14:43:13.550Z,44.27
2023-03-01T14:45:49.296Z,44.59
2023-03-01T14:48:17.795Z,45.34
2023-03-01T14:50:46.209Z,45.87
2023-03-01T14:53:25.261Z,46.13
2023-03-01T14:56:03.399Z,47.52
2023-03-01T14:58:34.847Z,48.23
2023-03-01T15:01:05.579Z,48.03
2023-03-01T15:03:42.211Z,48.90
2023-03-01T15:06:10.883Z,49.34
2023-03-01T15:08:44.127Z,50.74
2023-03-01T15:11:15.177Z,51.04
2023-03-01T15:13:43.661Z,50.25
2023-03-01T15:16:22.963Z,49.21
2023-03-01T15:19:16.819Z,50.97
2023-03-01T15:21:49.734Z,50.58
2023-03-01T15:24:26.426Z,51.51
2023-03-01T15:27:02.999Z,51.46
2023-03-01T15:29:34.575Z,51.13
2023-03-01T15:32:22.024Z,51.47
2023-03-01T15:34:50.474Z,52.15
2023-03-01T15:37:48.918Z,52.84
2023-03-01T15:40:33.967Z,52.06
2023-03-01T15:43:05.517Z,51.92
2023-03-01T15:45:39.706Z,52.60
2023-03-01T15:48:21.211Z,54.01
2023-03-01T15:50:56.837Z,54.02
2023-03-01T15:53:25.734Z,54.89
2023-03-01T15:55:53.820Z,55.15
2023-03-01T15:58:26.897Z,55.47
2023-03-01T16:01:01.275Z,55.56
2023-03-01T16:03:30.668Z,55.26
2023-03-01T16:05:59.010Z,56.07
2023-03-01T16:08:27.461Z,56.16
2023-03-01T16:10:55.690Z,55.96
2023-03-01T16:13:32.267Z,56.18
2023-03-01T16:16:00.465Z,56.54
2023-03-01T16:18:29.932Z,56.94
2023-03-01T16:20:58.121Z,57.06
2023-03-01T16:23:26.153Z,58.06
2023-03-01T16:25:54.206Z,58.63
2023-03-01T16:28:22.470Z,58.92
2023-03-01T16:30:51.883Z,58.50
2023-03-01T16:33:32.240Z,58.50
2023-03-01T16:36:11.149Z,58.38
2023-03-01T16:38:39.996Z,58.59
2023-03-01T16:41:13.745Z,59.07
2023-03-01T16:43:42.200Z,59.47
2023-03-01T16:46:30.095Z,59.87
2023-03-01T16:48:58.654Z,60.64
2023-03-01T16:51:26.906Z,61.19
2023-03-01T16:53:55.325Z,61.03
2023-03-01T16:56:23.513Z,61.65
2023-03-01T16:58:51.636Z,61.89
2023-03-01T17:01:22.653Z,63.26
2023-03-01T17:03:51.302Z,61.40
2023-03-01T17:06:23.254Z,56.60
2023-03-01T17:08:51.546Z,55.94
2023-03-01T17:11:21.415Z,57.37
2023-03-01T17:13:49.931Z,58.66
2023-03-01T17:16:20.902Z,59.65
2023-03-01T17:18:50.151Z,60.43
2023-03-01T17:21:18.367Z,61.22
2023-03-01T17:23:47.796Z,61.74
2023-03-01T17:26:17.382Z,62.06
2023-03-01T17:28:45.879Z,63.48
2023-03-01T17:31:14.119Z,61.61
2023-03-01T17:33:42.266Z,57.01
2023-03-01T17:36:10.909Z,56.38
2023-03-01T17:38:39.072Z,57.84
2023-03-01T17:41:07.823Z,59.11
2023-03-01T17:43:36.102Z,60.00
2023-03-01T17:46:04.772Z,60.80
2023-03-01T17:48:32.939Z,61.50
2023-03-01T17:51:01.053Z,63.20
2023-03-01T17:53:32.063Z,61.84
2023-03-01T17:56:06.784Z,57.29
2023-03-01T17:58:35.166Z,56.80
2023-03-01T18:01:18.024Z,58.39
2023-03-01T18:03:47.591Z,59.81
2023-03-01T18:06:29.625Z,60.73
2023-03-01T18:09:01.523Z,61.80
2023-03-01T18:11:29.896Z,63.67
2023-03-01T18:14:16.858Z,61.08
2023-03-01T18:16:45.222Z,56.87
2023-03-01T18:19:13.708Z,56.66
2023-03-01T18:21:41.775Z,58.24
2023-03-01T18:24:09.815Z,59.55
2023-03-01T18:26:39.949Z,60.78
2023-03-01T18:29:08.706Z,61.83
2023-03-01T18:31:37.299Z,63.37
2023-03-01T18:34:05.443Z,61.26
2023-03-01T18:36:35.904Z,56.83
2023-03-01T18:39:06.972Z,56.72
2023-03-01T18:41:36.397Z,58.32
2023-03-01T18:44:05.538Z,59.66
2023-03-01T18:46:37.932Z,60.81
2023-03-01T18:49:08.171Z,61.89
2023-03-01T18:51:36.351Z,63.56
2023-03-01T18:54:05.124Z,61.68
2023-03-01T18:56:59.736Z,57.43
2023-03-01T18:59:30.084Z,57.57
2023-03-01T19:01:59.555Z,59.44
2023-03-01T19:04:28.379Z,61.00
2023-03-01T19:06:56.752Z,62.06
2023-03-01T19:09:25.191Z,63.74
2023-03-01T19:12:10.712Z,61.03
2023-03-01T19:14:38.862Z,56.87
2023-03-01T19:17:07.299Z,56.98
2023-03-01T19:19:36.518Z,58.76
2023-03-01T19:22:06.213Z,60.39
2023-03-01T19:24:37.707Z,61.74
2023-03-01T19:27:05.897Z,63.52
2023-03-01T19:29:35.440Z,61.19
2023-03-01T19:32:04.236Z,56.91
2023-03-01T19:40:52.810Z,61.39
2023-03-01T19:43:21.067Z,62.72
2023-03-01T19:45:53.526Z,62.96
2023-03-01T19:48:22.861Z,59.09
2023-03-01T19:50:53.211Z,56.20
2023-03-01T19:53:22.128Z,57.83
2023-03-01T19:55:53.118Z,59.69
2023-03-01T19:58:21.244Z,61.17
2023-03-01T20:00:49.243Z,62.65
2023-03-01T20:03:17.284Z,63.20
2023-03-01T20:05:46.773Z,59.47
2023-03-01T20:08:14.715Z,56.33
2023-03-01T20:10:43.444Z,57.85
2023-03-01T20:13:11.591Z,59.83
2023-03-01T20:15:43.420Z,61.39
2023-03-01T20:18:11.799Z,63.26
2023-03-01T20:20:39.761Z,61.89
2023-03-01T20:23:07.680Z,57.57
2023-03-01T20:25:35.680Z,57.28
2023-03-01T20:28:03.748Z,59.11
2023-03-01T20:30:31.881Z,60.80
2023-03-01T20:32:59.959Z,62.15
2023-03-01T20:35:32.045Z,63.84
2023-03-01T20:38:00.049Z,61.11
2023-03-01T20:40:28.500Z,56.58
2023-03-01T20:42:56.648Z,57.00
2023-03-01T20:45:27.996Z,59.20
2023-03-01T20:47:56.244Z,60.83
2023-03-01T20:50:24.363Z,62.18
2023-03-01T20:52:52.374Z,64.10
2023-03-01T20:55:20.543Z,60.96
2023-03-01T20:57:48.600Z,56.63
2023-03-01T21:00:17.013Z,57.24
2023-03-01T21:02:45.049Z,59.74
2023-03-01T21:05:13.076Z,61.70
2023-03-01T21:07:41.166Z,63.82
2023-03-01T21:10:10.782Z,61.55
2023-03-01T21:12:39.166Z,57.02
2023-03-01T21:15:09.716Z,57.35
2023-03-01T21:17:39.356Z,59.60
2023-03-01T21:20:08.287Z,61.49
2023-03-01T21:22:36.269Z,63.63
2023-03-01T21:25:04.951Z,61.39
2023-03-01T21:27:38.058Z,56.69
2023-03-01T21:30:06.591Z,56.99
2023-03-01T21:32:34.534Z,59.24
2023-03-01T21:35:02.654Z,61.28
2023-03-01T21:37:30.745Z,62.84
2023-03-01T21:39:58.715Z,62.67
2023-03-01T21:42:26.642Z,58.04
2023-03-01T21:44:54.663Z,56.39
2023-03-01T21:47:22.810Z,58.42
2023-03-01T21:49:51.016Z,60.36
2023-03-01T21:52:19.128Z,61.97
2023-03-01T21:54:51.011Z,63.83
2023-03-01T21:57:19.621Z,61.10
2023-03-01T21:59:47.520Z,56.42
2023-03-01T22:02:15.932Z,56.72
2023-03-01T22:04:44.019Z,58.73
2023-03-01T22:07:12.186Z,60.51
2023-03-01T22:09:40.542Z,61.81
2023-03-01T22:12:08.653Z,63.62
2023-03-01T22:14:36.826Z,61.17
2023-03-01T22:17:04.846Z,56.44
2023-03-01T22:19:33.161Z,56.61
2023-03-01T22:22:01.393Z,58.66
2023-03-01T22:24:29.593Z,60.53
2023-03-01T22:26:57.756Z,62.06
2023-03-01T22:29:29.136Z,63.86
2023-03-01T22:31:58.415Z,60.76
2023-03-01T22:34:27.577Z,56.06
2023-03-01T22:36:56.613Z,56.70
2023-03-01T22:39:24.788Z,58.85
2023-03-01T22:42:11.226Z,60.86
2023-03-01T22:44:39.213Z,62.19
2023-03-01T22:47:07.144Z,63.90
2023-03-01T22:49:35.160Z,61.02
2023-03-01T22:52:03.723Z,56.41
2023-03-01T22:54:32.402Z,56.80
2023-03-01T22:57:00.644Z,59.16
2023-03-01T22:59:28.653Z,61.09
2023-03-01T23:01:57.438Z,63.27
2023-03-01T23:04:25.491Z,62.03
2023-03-01T23:06:56.888Z,57.29
2023-03-01T23:09:31.772Z,57.14
2023-03-01T23:12:02.492Z,59.33
2023-03-01T23:14:32.359Z,61.15
2023-03-01T23:17:01.815Z,62.48
2023-03-01T23:19:32.159Z,63.63
2023-03-01T23:22:00.151Z,59.79
2023-03-01T23:24:31.786Z,55.69
2023-03-01T23:27:01.426Z,57.00
2023-03-01T23:29:30.482Z,59.10
2023-03-01T23:31:59.372Z,60.76
2023-03-01T23:34:28.686Z,61.97
2023-03-01T23:36:58.063Z,63.91
2023-03-01T23:39:27.592Z,61.36
2023-03-01T23:41:56.976Z,56.43
2023-03-01T23:44:24.971Z,56.58
2023-03-01T23:46:53.173Z,58.62
2023-03-01T23:49:23.411Z,60.45
2023-03-01T23:51:51.851Z,61.60
2023-03-01T23:54:23.860Z,63.34
2023-03-01T23:56:52.090Z,61.45
2023-03-01T23:59:23.287Z,56.74
